Time;durP1;ratioP1;P1;durP2;ratioP2;P2;SDS_P1;SDS_P2;PMS_P1;PMS_P2;Temp;Humidity;BMP_temperature;BMP_pressure;BME280_temperature;BME280_humidity;BME280_pressure;Samples;Min_cycle;Max_cycle;Signal;HPM_P1;HPM_P2
2022/06/19 00:01:59;;;;;;;12.50;11.30;;;;;;;16.53;100.00;99014.02;105279;1271;62867;-75
2022/06/19 00:04:26;;;;;;;13.80;11.70;;;;;;;16.49;100.00;99014.55;105213;1271;75089;-76
2022/06/19 00:06:56;;;;;;;11.90;10.80;;;;;;;16.46;100.00;99013.02;105255;1271;69215;-76
2022/06/19 00:09:25;;;;;;;11.00;10.00;;;;;;;16.43;100.00;99012.25;105309;1271;71858;-77
2022/06/19 00:11:55;;;;;;;11.80;10.60;;;;;;;16.40;100.00;99015.17;105383;1271;61320;-76
2022/06/19 00:14:23;;;;;;;14.30;11.80;;;;;;;16.38;100.00;99014.28;105353;1271;61415;-75
2022/06/19 00:16:50;;;;;;;12.30;11.10;;;;;;;16.33;100.00;99015.83;105021;1271;74578;-75
2022/06/19 00:19:17;;;;;;;13.30;11.90;;;;;;;16.30;100.00;99012.15;105184;1271;70556;-75
2022/06/19 00:21:44;;;;;;;12.70;11.30;;;;;;;16.26;100.00;99010.86;105162;1271;73819;-75
2022/06/19 00:24:10;;;;;;;12.30;11.10;;;;;;;16.24;100.00;99013.40;104981;1271;61423;-75
2022/06/19 00:26:37;;;;;;;12.40;11.10;;;;;;;16.22;100.00;99010.02;105084;1271;61285;-75
2022/06/19 00:29:03;;;;;;;12.80;11.60;;;;;;;16.20;100.00;99004.39;105220;1270;61261;-75
2022/06/19 00:31:30;;;;;;;12.60;11.30;;;;;;;16.17;100.00;99004.91;105231;1271;61274;-76
2022/06/19 00:33:56;;;;;;;14.40;12.10;;;;;;;16.13;100.00;99002.56;105041;1271;61380;-75
2022/06/19 00:36:25;;;;;;;12.60;10.80;;;;;;;16.10;100.00;99003.94;105240;1271;61288;-75
2022/06/19 00:38:51;;;;;;;12.50;11.30;;;;;;;16.07;100.00;99004.02;105214;1271;61159;-76
2022/06/19 00:41:19;;;;;;;12.30;11.10;;;;;;;16.04;100.00;98997.64;105095;1271;61313;-75
2022/06/19 00:44:04;;;;;;;12.80;11.40;;;;;;;16.02;100.00;98996.03;105016;1271;69466;-76
2022/06/19 00:46:49;;;;;;;13.70;11.20;;;;;;;16.00;100.00;98995.14;104975;1271;72798;-75
2022/06/19 00:49:15;;;;;;;13.00;11.60;;;;;;;15.96;100.00;98995.30;105247;1271;61196;-76
2022/06/19 00:51:43;;;;;;;12.80;11.60;;;;;;;15.92;100.00;98994.77;105256;1271;61332;-75
2022/06/19 00:54:13;;;;;;;12.30;11.20;;;;;;;15.88;100.00;98994.54;105116;1271;76352;-75
2022/06/19 00:56:41;;;;;;;11.80;10.50;;;;;;;15.87;100.00;98995.59;105257;1271;69289;-78
2022/06/19 00:59:10;;;;;;;13.10;11.80;;;;;;;15.85;100.00;98991.84;105333;1271;73170;-76
2022/06/19 01:01:36;;;;;;;13.90;12.60;;;;;;;15.82;100.00;98993.88;105207;1271;61281;-76
2022/06/19 01:04:09;;;;;;;13.10;11.80;;;;;;;15.78;100.00;98992.41;105236;1271;61325;-75
2022/06/19 01:06:36;;;;;;;13.60;12.20;;;;;;;15.73;100.00;98992.65;105240;1271;76347;-76
2022/06/19 01:09:04;;;;;;;13.60;12.20;;;;;;;15.69;100.00;98992.29;105121;1271;69576;-75
2022/06/19 01:11:34;;;;;;;12.60;11.20;;;;;;;15.65;100.00;98982.95;105015;1271;71302;-75
2022/06/19 01:14:02;;;;;;;14.10;12.20;;;;;;;15.61;100.00;98979.73;105253;1271;61284;-75
2022/06/19 01:16:30;;;;;;;13.00;11.70;;;;;;;15.56;100.00;98979.77;105231;1271;62279;-77
2022/06/19 01:18:59;;;;;;;13.30;11.60;;;;;;;15.51;100.00;98981.64;105228;1270;74769;-75
2022/06/19 01:21:31;;;;;;;13.60;12.00;;;;;;;15.48;100.00;98978.75;105246;1271;69121;-76
2022/06/19 01:24:05;;;;;;;14.90;11.60;;;;;;;15.44;100.00;98974.39;105241;1271;73490;-76
2022/06/19 01:26:37;;;;;;;13.20;11.80;;;;;;;15.42;100.00;98974.80;105261;1271;61380;-76
2022/06/19 01:29:04;;;;;;;14.10;12.70;;;;;;;15.39;100.00;98975.19;105294;1269;61511;-75
2022/06/19 01:31:45;;;;;;;13.10;11.90;;;;;;;15.36;100.00;98975.60;105278;1270;75601;-75
2022/06/19 01:34:27;;;;;;;15.30;12.80;;;;;;;15.35;100.00;98974.48;105207;1271;69694;-77
2022/06/19 01:37:11;;;;;;;14.40;12.90;;;;;;;15.34;100.00;98977.04;105220;1271;73156;-77
2022/06/19 01:39:42;;;;;;;13.00;11.60;;;;;;;15.33;100.00;98972.33;105277;1271;61426;-76
2022/06/19 01:42:11;;;;;;;13.90;12.50;;;;;;;15.31;100.00;98965.34;105320;1268;61262;-75
2022/06/19 01:44:41;;;;;;;15.10;13.60;;;;;;;15.28;100.00;98968.80;105111;1271;76475;-75
2022/06/19 01:47:07;;;;;;;13.20;11.80;;;;;;;15.27;100.00;98961.17;105311;1271;69486;-75
2022/06/19 01:49:36;;;;;;;13.80;12.40;;;;;;;15.24;100.00;98956.29;105203;1271;73344;-76
2022/06/19 01:52:04;;;;;;;14.00;12.60;;;;;;;15.23;100.00;98956.42;105266;1271;61345;-76
2022/06/19 01:54:36;;;;;;;15.20;13.60;;;;;;;15.21;100.00;98962.23;105224;1271;61889;-76
2022/06/19 01:57:07;;;;;;;13.60;12.20;;;;;;;15.21;100.00;98960.98;105260;1271;76316;-76
2022/06/19 01:59:36;;;;;;;14.00;11.80;;;;;;;15.21;100.00;98961.05;105309;1271;70563;-75
2022/06/19 02:02:06;;;;;;;13.20;12.00;;;;;;;15.20;100.00;98956.49;105313;1271;72679;-75
2022/06/19 02:04:32;;;;;;;;;;;;;;;15.20;100.00;98951.95;105311;1271;61267;-75
2022/06/19 02:07:07;;;;;;;12.40;11.20;;;;;;;15.19;100.00;98951.73;105222;1271;61372;-76
2022/06/19 02:09:35;;;;;;;12.80;11.50;;;;;;;15.17;100.00;98947.82;105074;1271;75512;-75
2022/06/19 02:12:03;;;;;;;13.30;12.00;;;;;;;15.16;100.00;98946.80;105248;1271;69302;-75
2022/06/19 02:14:31;;;;;;;17.00;12.20;;;;;;;15.14;100.00;98944.05;105248;1271;73151;-75
2022/06/19 02:17:06;;;;;;;12.90;11.60;;;;;;;15.11;100.00;98940.73;105227;1271;61282;-75
2022/06/19 02:19:33;;;;;;;13.10;11.80;;;;;;;15.11;100.00;98937.34;105207;1271;61342;-76
2022/06/19 02:22:00;;;;;;;12.40;11.30;;;;;;;15.10;100.00;98935.48;105344;1271;75920;-74
2022/06/19 02:24:28;;;;;;;13.60;12.30;;;;;;;15.08;100.00;98935.88;105132;1271;67300;-74
2022/06/19 02:26:56;;;;;;;12.70;11.40;;;;;;;15.05;100.00;98930.52;105205;1271;74178;-76
2022/06/19 02:29:23;;;;;;;13.10;11.80;;;;;;;15.03;100.00;98934.48;105262;1271;61254;-76
2022/06/19 02:31:53;;;;;;;11.90;10.70;;;;;;;15.00;100.00;98930.08;105186;1271;61888;-75
2022/06/19 02:34:24;;;;;;;;;;;;;;;14.98;100.00;98933.12;105307;1271;75347;-75
2022/06/19 02:36:59;;;;;;;13.70;12.30;;;;;;;14.96;100.00;98930.67;105262;1271;69429;-75
2022/06/19 02:39:35;;;;;;;14.00;12.60;;;;;;;14.95;100.00;98932.14;105230;1271;72589;-75
2022/06/19 02:42:20;;;;;;;13.50;11.70;;;;;;;14.96;100.00;98928.67;105217;1271;61418;-76
2022/06/19 02:44:51;;;;;;;13.10;11.80;;;;;;;14.97;100.00;98930.77;105091;1271;61137;-76
2022/06/19 02:47:18;;;;;;;14.90;13.40;;;;;;;14.96;100.00;98935.11;105200;1271;73532;-76
2022/06/19 02:49:45;;;;;;;14.80;13.20;;;;;;;14.96;100.00;98934.95;105214;1271;69301;-76
2022/06/19 02:52:12;;;;;;;13.60;12.40;;;;;;;14.99;100.00;98935.05;105246;1271;72211;-76
2022/06/19 02:54:39;;;;;;;12.90;11.60;;;;;;;15.02;100.00;98934.05;105243;1271;61282;-76
2022/06/19 02:57:09;;;;;;;14.40;13.00;;;;;;;15.05;100.00;98937.89;105223;1271;62020;-74
2022/06/19 02:59:36;;;;;;;13.40;12.10;;;;;;;15.08;100.00;98939.59;105220;1271;75324;-75
2022/06/19 03:02:03;;;;;;;15.10;13.60;;;;;;;15.13;100.00;98939.88;105222;1271;69136;-75
2022/06/19 03:04:36;;;;;;;16.40;12.20;;;;;;;15.20;100.00;98938.97;105268;1271;73703;-75
2022/06/19 03:07:04;;;;;;;13.70;12.50;;;;;;;15.27;100.00;98942.79;105087;1269;259043;-76
2022/06/19 03:09:30;;;;;;;13.70;12.50;;;;;;;15.34;100.00;98943.77;105258;1269;61212;-76
2022/06/19 03:11:57;;;;;;;15.00;12.70;;;;;;;15.44;100.00;98942.05;105245;1270;61322;-75
2022/06/19 03:14:24;;;;;;;13.60;12.30;;;;;;;15.54;100.00;98946.13;105211;1271;69377;-75
2022/06/19 03:16:51;;;;;;;12.90;11.60;;;;;;;15.67;100.00;98950.02;105261;1271;70886;-76
2022/06/19 03:19:18;;;;;;;13.40;12.10;;;;;;;15.79;100.00;98953.09;105210;1271;61392;-75
2022/06/19 03:21:45;;;;;;;14.20;12.90;;;;;;;15.92;100.00;98947.81;105230;1271;61256;-74
2022/06/19 03:24:12;;;;;;;13.30;12.00;;;;;;;16.06;100.00;98945.27;105246;1270;75049;-75
2022/06/19 03:26:38;;;;;;;13.40;12.10;;;;;;;16.20;100.00;98947.42;104985;1271;61428;-76
2022/06/19 03:29:05;;;;;;;14.50;12.60;;;;;;;16.36;100.00;98949.40;105131;1271;74182;-76
2022/06/19 03:31:32;;;;;;;14.50;12.60;;;;;;;16.68;100.00;98946.93;105100;1268;61319;-76
2022/06/19 03:33:58;;;;;;;15.10;13.50;;;;;;;17.11;100.00;98940.27;105235;1270;61179;-76
2022/06/19 03:36:25;;;;;;;13.60;12.30;;;;;;;17.53;100.00;98938.27;105223;1271;76229;-75
2022/06/19 03:38:51;;;;;;;12.60;11.50;;;;;;;17.92;100.00;98939.09;105258;1271;70279;-75
2022/06/19 03:41:18;;;;;;;14.10;12.30;;;;;;;18.30;100.00;98936.66;105073;1271;61396;-75
2022/06/19 03:43:45;;;;;;;12.50;11.20;;;;;;;18.64;100.00;98935.53;104972;1271;61494;-75
2022/06/19 03:46:15;;;;;;;13.40;12.10;;;;;;;18.99;100.00;98931.48;105118;1271;59857;-75
2022/06/19 03:48:47;;;;;;;13.60;12.30;;;;;;;19.37;100.00;98930.71;105284;1271;74579;-76
2022/06/19 03:51:22;;;;;;;12.70;11.60;;;;;;;19.74;100.00;98926.89;105225;1271;67871;-75
2022/06/19 03:53:51;;;;;;;12.60;11.30;;;;;;;20.16;98.78;98932.10;105245;1271;73552;-75
2022/06/19 03:56:22;;;;;;;12.30;11.00;;;;;;;20.58;96.33;98926.30;105309;1271;61295;-77
2022/06/19 03:58:51;;;;;;;12.20;11.10;;;;;;;20.99;93.80;98926.55;105188;1270;61312;-77
2022/06/19 04:01:23;;;;;;;12.90;11.70;;;;;;;21.38;91.69;98928.08;105208;1271;76073;-76
2022/06/19 04:03:52;;;;;;;13.10;12.10;;;;;;;21.80;89.43;98926.02;105229;1271;69877;-76
2022/06/19 04:06:24;;;;;;;12.30;11.20;;;;;;;22.18;87.16;98921.87;105232;1271;73229;-76
2022/06/19 04:08:52;;;;;;;12.90;11.80;;;;;;;22.57;85.23;98920.06;105227;1271;61316;-76
2022/06/19 04:11:21;;;;;;;11.50;10.60;;;;;;;22.93;83.43;98919.70;105214;1271;61812;-75
2022/06/19 04:13:48;;;;;;;12.60;11.40;;;;;;;23.30;81.77;98920.88;105232;1271;75203;-76
2022/06/19 04:16:20;;;;;;;10.30;9.40;;;;;;;23.71;80.57;98918.29;105229;1271;69194;-76
2022/06/19 04:18:49;;;;;;;9.60;8.80;;;;;;;24.17;79.11;98919.67;105412;1271;73202;-74
2022/06/19 04:21:18;;;;;;;10.90;9.90;;;;;;;24.59;77.20;98920.98;105292;1271;61396;-75
2022/06/19 04:23:45;;;;;;;12.20;11.00;;;;;;;24.85;75.30;98918.36;105287;1271;61342;-75
2022/06/19 04:26:15;;;;;;;10.60;9.70;;;;;;;25.09;73.38;98912.62;105223;1271;75357;-75
2022/06/19 04:28:43;;;;;;;10.40;9.30;;;;;;;25.38;72.23;98906.98;105303;1271;69474;-75
2022/06/19 04:31:09;;;;;;;10.00;9.20;;;;;;;25.57;70.70;98907.21;105249;1270;72195;-75
2022/06/19 04:33:39;;;;;;;10.50;8.80;;;;;;;25.78;69.89;98907.83;104858;1271;61421;-75
2022/06/19 04:36:09;;;;;;;9.40;8.70;;;;;;;26.05;68.38;98907.13;105018;1271;61352;-75
2022/06/19 04:38:40;;;;;;;8.90;8.10;;;;;;;26.29;67.18;98904.34;105226;1271;76594;-76
2022/06/19 04:41:25;;;;;;;9.50;8.60;;;;;;;26.55;66.19;98906.44;105257;1271;70293;-75
2022/06/19 04:43:52;;;;;;;8.90;8.10;;;;;;;27.06;65.52;98908.20;105212;1271;73080;-75
2022/06/19 04:46:19;;;;;;;8.00;7.30;;;;;;;27.55;64.56;98906.08;105224;1271;61236;-75
2022/06/19 04:48:46;;;;;;;8.50;7.40;;;;;;;27.94;63.00;98902.73;104976;1271;63004;-77
2022/06/19 04:51:14;;;;;;;8.40;7.50;;;;;;;28.24;61.47;98906.05;105230;1271;75446;-75
2022/06/19 04:53:41;;;;;;;8.30;7.50;;;;;;;28.48;60.31;98902.93;105336;1271;70437;-75
2022/06/19 04:56:09;;;;;;;7.30;6.70;;;;;;;28.58;58.97;98902.73;105186;1270;74417;-76
2022/06/19 04:58:36;;;;;;;7.10;6.50;;;;;;;28.57;57.95;98902.08;105294;1271;61275;-76
2022/06/19 05:01:09;;;;;;;7.50;6.70;;;;;;;28.57;57.38;98898.48;104984;1271;61791;-74
2022/06/19 05:03:36;;;;;;;8.60;7.80;;;;;;;28.65;56.91;98898.27;105391;1271;75614;-74
2022/06/19 05:06:05;;;;;;;8.90;8.10;;;;;;;28.76;56.30;98889.41;105267;1271;68535;-76
2022/06/19 05:08:32;;;;;;;7.80;7.00;;;;;;;28.91;55.83;98885.95;105000;1271;73440;-76
2022/06/19 05:10:59;;;;;;;7.60;6.90;;;;;;;29.07;55.41;98880.81;105201;1271;61330;-77
2022/06/19 05:13:26;;;;;;;7.00;6.10;;;;;;;29.26;54.64;98876.23;105221;1271;61953;-76
2022/06/19 05:16:05;;;;;;;7.30;6.70;;;;;;;29.45;54.30;98873.30;105248;1270;61301;-77
2022/06/19 05:18:34;;;;;;;6.60;5.80;;;;;;;29.83;53.75;98878.77;105243;1271;70131;-76
2022/06/19 05:21:04;;;;;;;6.30;5.70;;;;;;;30.21;52.75;98877.95;105222;1270;72308;-76
2022/06/19 05:23:32;;;;;;;6.10;5.50;;;;;;;30.41;51.72;98873.23;105030;1271;61477;-75
2022/06/19 05:26:02;;;;;;;5.90;5.50;;;;;;;30.49;51.05;98875.00;105253;1271;62364;-75
2022/06/19 05:28:30;;;;;;;5.10;4.70;;;;;;;30.50;50.05;98874.31;105251;1271;74776;-76
2022/06/19 05:30:58;;;;;;;6.40;5.80;;;;;;;30.56;49.35;98872.86;104951;1271;70259;-75
2022/06/19 05:33:26;;;;;;;6.40;5.80;;;;;;;30.84;47.87;98870.52;105259;1269;74168;-75
2022/06/19 05:35:54;;;;;;;6.20;5.60;;;;;;;30.91;46.94;98866.11;105242;1271;61441;-75
2022/06/19 05:38:21;;;;;;;6.00;4.50;;;;;;;31.04;46.82;98862.45;105223;1271;61293;-75
2022/06/19 05:40:52;;;;;;;4.50;4.10;;;;;;;31.11;46.19;98864.11;105198;1271;74070;-75
2022/06/19 05:43:20;;;;;;;5.40;4.10;;;;;;;31.13;45.48;98862.46;105258;1271;70314;-76
2022/06/19 05:45:57;;;;;;;6.40;4.10;;;;;;;31.21;45.18;98861.38;105226;1271;72246;-77
2022/06/19 05:48:25;;;;;;;4.40;4.00;;;;;;;31.28;44.56;98867.09;105196;1271;61513;-77
2022/06/19 05:51:05;;;;;;;5.70;5.00;;;;;;;31.31;44.76;98861.88;105219;1271;61857;-75
2022/06/19 05:53:35;;;;;;;4.30;3.90;;;;;;;31.49;44.33;98862.48;105273;1271;76223;-76
2022/06/19 05:56:03;;;;;;;5.60;3.40;;;;;;;31.57;43.48;98858.48;105257;1271;70446;-75
2022/06/19 05:58:30;;;;;;;3.90;3.50;;;;;;;31.62;42.94;98856.58;105238;1271;73457;-75
2022/06/19 06:00:57;;;;;;;4.70;3.70;;;;;;;31.62;42.90;98855.58;105206;1271;61345;-75
2022/06/19 06:03:24;;;;;;;3.60;3.40;;;;;;;31.66;42.71;98847.09;105199;1270;61297;-76
2022/06/19 06:05:51;;;;;;;4.10;3.70;;;;;;;31.71;42.33;98848.90;105206;1271;76342;-75
2022/06/19 06:08:19;;;;;;;3.60;3.30;;;;;;;31.78;42.59;98845.29;105275;1271;70421;-77
2022/06/19 06:10:49;;;;;;;4.50;3.40;;;;;;;31.82;42.36;98844.86;105236;1270;74485;-76
2022/06/19 06:13:16;;;;;;;5.30;3.50;;;;;;;31.93;42.11;98843.67;105284;1271;61311;-76
2022/06/19 06:15:45;;;;;;;4.50;3.60;;;;;;;32.06;41.89;98846.77;105311;1271;61344;-76
2022/06/19 06:18:12;;;;;;;5.60;3.50;;;;;;;32.18;41.81;98850.69;105124;1271;75515;-74
2022/06/19 06:20:38;;;;;;;3.40;3.10;;;;;;;32.32;41.52;98854.90;105234;1271;69421;-76
2022/06/19 06:23:05;;;;;;;3.80;3.00;;;;;;;32.47;41.38;98850.23;105195;1271;74229;-76
2022/06/19 06:25:31;;;;;;;3.90;3.50;;;;;;;32.61;41.15;98843.98;104895;1272;61419;-76
2022/06/19 06:27:58;;;;;;;5.40;4.10;;;;;;;32.71;40.85;98838.02;105239;1271;61292;-75
2022/06/19 06:30:24;;;;;;;5.40;3.60;;;;;;;32.86;40.94;98834.96;105197;1271;75323;-78
2022/06/19 06:32:51;;;;;;;4.10;3.70;;;;;;;32.93;40.91;98827.70;105205;1271;61252;-76
2022/06/19 06:35:18;;;;;;;3.10;2.70;;;;;;;33.01;40.84;98827.59;105211;1271;74736;-76
2022/06/19 06:37:44;;;;;;;3.10;2.80;;;;;;;32.95;40.40;98821.29;105173;1271;61377;-76
2022/06/19 06:40:11;;;;;;;3.50;2.90;;;;;;;32.88;40.38;98826.26;105180;1271;61324;-77
2022/06/19 06:42:38;;;;;;;3.20;2.90;;;;;;;32.90;40.30;98827.39;105238;1271;75274;-76
2022/06/19 06:45:07;;;;;;;3.00;2.70;;;;;;;33.02;40.13;98821.08;105251;1271;68874;-75
2022/06/19 06:47:33;;;;;;;3.80;2.90;;;;;;;33.05;40.12;98817.77;104946;1271;71451;-75
2022/06/19 06:50:00;;;;;;;3.00;2.60;;;;;;;33.11;40.18;98810.29;105193;1271;61294;-75
2022/06/19 06:52:26;;;;;;;2.90;2.30;;;;;;;33.23;39.91;98803.17;105192;1270;61279;-76
2022/06/19 06:54:53;;;;;;;7.10;2.50;;;;;;;33.26;39.64;98797.02;105257;1271;61163;-75
2022/06/19 06:57:19;;;;;;;2.90;2.50;;;;;;;33.23;39.67;98790.42;105215;1270;61280;-75
2022/06/19 06:59:46;;;;;;;4.00;1.90;;;;;;;33.28;39.61;98788.21;105226;1271;61146;-76
2022/06/19 07:02:12;;;;;;;3.10;2.30;;;;;;;33.27;39.65;98784.27;105204;1271;61284;-75
2022/06/19 07:04:39;;;;;;;2.10;1.90;;;;;;;33.29;39.76;98783.41;105254;1271;61397;-75
2022/06/19 07:07:05;;;;;;;2.40;1.80;;;;;;;33.30;39.89;98785.53;105222;1271;61329;-75
2022/06/19 07:09:32;;;;;;;3.50;2.00;;;;;;;33.37;39.49;98786.23;104913;1271;69656;-76
2022/06/19 07:11:59;;;;;;;2.50;1.80;;;;;;;33.30;38.97;98786.62;105192;1271;61164;-76
2022/06/19 07:14:25;;;;;;;4.10;1.80;;;;;;;33.18;38.94;98784.48;104938;1271;61384;-76
2022/06/19 07:16:52;;;;;;;3.70;1.80;;;;;;;33.17;39.09;98788.45;105221;1271;61282;-76
2022/06/19 07:19:18;;;;;;;2.70;1.60;;;;;;;33.09;38.70;98790.42;105166;1270;75141;-76
2022/06/19 07:21:45;;;;;;;4.40;2.00;;;;;;;33.12;38.67;98791.36;105217;1271;69639;-76
2022/06/19 07:24:11;;;;;;;2.60;2.00;;;;;;;33.29;38.89;98788.89;105208;1271;61310;-75
2022/06/19 07:26:38;;;;;;;2.90;2.10;;;;;;;33.30;38.68;98788.06;105202;1271;61176;-75
2022/06/19 07:29:05;;;;;;;2.80;2.20;;;;;;;33.34;38.83;98785.02;105197;1271;61147;-76
2022/06/19 07:31:32;;;;;;;3.00;1.90;;;;;;;33.28;38.72;98783.90;105206;1271;76088;-76
2022/06/19 07:33:58;;;;;;;2.10;1.90;;;;;;;33.28;38.70;98781.23;105209;1271;61259;-76
2022/06/19 07:36:25;;;;;;;3.70;2.10;;;;;;;33.05;38.57;98787.72;105215;1271;61282;-76
2022/06/19 07:38:52;;;;;;;3.20;1.80;;;;;;;32.80;37.60;98781.75;105278;1271;61282;-76
2022/06/19 07:41:19;;;;;;;4.30;1.90;;;;;;;32.32;38.03;98785.52;105237;1271;61935;-76
2022/06/19 07:43:46;;;;;;;3.90;1.70;;;;;;;32.05;39.14;98784.66;105234;1271;75112;-75
2022/06/19 07:46:13;;;;;;;4.20;2.20;;;;;;;32.00;39.38;98782.52;105261;1271;68728;-75
2022/06/19 07:51:29;;;;;;;2.40;1.40;;;;;;;31.99;39.21;98775.92;105214;1271;61383;-75
2022/06/19 07:53:55;;;;;;;3.80;1.80;;;;;;;31.94;39.44;98774.56;105228;1271;61374;-76
2022/06/19 07:56:22;;;;;;;1.70;1.50;;;;;;;31.78;38.49;98784.00;105275;1271;61384;-76
2022/06/19 07:58:48;;;;;;;5.10;1.60;;;;;;;31.59;38.12;98780.58;105238;1271;70577;-76
2022/06/19 08:01:15;;;;;;;2.20;1.60;;;;;;;31.38;37.91;98778.95;105254;1271;61201;-75
2022/06/19 08:03:41;;;;;;;4.80;1.30;;;;;;;31.23;38.33;98780.98;105208;1271;61205;-76
2022/06/19 08:06:08;;;;;;;4.20;1.50;;;;;;;31.14;38.21;98779.63;105240;1271;61244;-75
2022/06/19 08:08:35;;;;;;;2.30;1.50;;;;;;;31.10;38.68;98777.27;105238;1271;75285;-76
2022/06/19 08:11:02;;;;;;;2.40;1.20;;;;;;;31.10;38.40;98779.64;105036;1271;68267;-76
2022/06/19 08:13:30;;;;;;;4.00;1.40;;;;;;;31.05;38.61;98779.04;105237;1271;73509;-76
2022/06/19 08:16:03;;;;;;;2.00;1.60;;;;;;;31.12;39.04;98782.09;105240;1271;61210;-76
2022/06/19 08:18:31;;;;;;;3.10;1.60;;;;;;;31.19;38.83;98779.40;105261;1271;61298;-77
2022/06/19 08:20:58;;;;;;;1.90;1.30;;;;;;;31.16;38.29;98781.26;105351;1271;75299;-76
2022/06/19 08:23:25;;;;;;;2.30;1.70;;;;;;;31.16;39.13;98776.69;105065;1272;69265;-76
2022/06/19 08:25:52;;;;;;;3.20;1.60;;;;;;;31.30;39.25;98763.42;105214;1271;73252;-76
2022/06/19 08:31:13;;;;;;;2.70;1.90;;;;;;;31.40;38.62;98769.56;104846;1277;61361;-75
2022/06/19 08:33:40;;;;;;;2.70;1.60;;;;;;;31.35;38.86;98762.88;104799;1277;75941;-77
2022/06/19 08:36:10;;;;;;;2.30;1.40;;;;;;;31.37;38.61;98762.28;104481;1280;61262;-76
2022/06/19 08:38:43;;;;;;;2.90;1.70;;;;;;;31.35;38.38;98763.77;104800;1277;74727;-77
2022/06/19 08:41:40;;;;;;;1.50;1.30;;;;;;;31.36;38.42;98763.41;104779;1277;61324;-76
2022/06/19 08:44:31;;;;;;;4.80;1.70;;;;;;;31.37;38.61;98765.76;104505;1277;61494;-76
2022/06/19 08:47:23;;;;;;;3.20;1.50;;;;;;;31.48;38.70;98764.79;104574;1277;75516;-76
2022/06/19 08:50:02;;;;;;;2.90;1.90;;;;;;;31.54;38.75;98766.35;104616;1277;70190;-76
2022/06/19 08:52:47;;;;;;;;;;;;;;;31.50;38.05;98768.09;104576;1277;73665;-77
2022/06/19 08:55:52;;;;;;;3.80;1.50;;;;;;;31.38;38.02;98771.98;104581;1277;61382;-76
2022/06/19 08:58:51;;;;;;;2.20;1.60;;;;;;;31.42;38.29;98772.81;103931;1285;61290;-76
2022/06/19 09:01:17;;;;;;;1.90;1.30;;;;;;;31.44;38.12;98774.61;103921;1285;75359;-76
2022/06/19 09:07:16;;;;;;;3.60;1.60;;;;;;;31.40;37.48;98778.05;103949;1285;71906;-77
2022/06/19 09:09:49;;;;;;;2.40;1.30;;;;;;;31.38;37.18;98777.32;103801;1288;61390;-77
2022/06/19 09:12:21;;;;;;;3.00;1.40;;;;;;;31.30;36.56;98781.13;103961;1284;61360;-76
2022/06/19 09:15:12;;;;;;;3.90;1.70;;;;;;;31.23;36.30;98784.38;103941;1284;75304;-76
2022/06/19 09:18:04;;;;;;;4.40;1.30;;;;;;;31.24;36.72;98781.16;104088;1284;68536;-77
2022/06/19 09:20:43;;;;;;;2.00;1.30;;;;;;;31.33;36.18;98776.84;103967;1284;74159;-75
2022/06/19 09:23:10;;;;;;;3.90;1.60;;;;;;;31.36;36.09;98772.34;104018;1284;61383;-76
2022/06/19 09:26:00;;;;;;;3.00;1.50;;;;;;;31.37;36.21;98769.95;103968;1284;61352;-77
2022/06/19 09:28:34;;;;;;;1.70;1.40;;;;;;;31.40;35.68;98765.06;103994;1284;75673;-76
2022/06/19 09:31:22;;;;;;;2.20;1.40;;;;;;;31.41;35.64;98759.05;103959;1284;69274;-76
2022/06/19 09:34:08;;;;;;;3.30;1.20;;;;;;;31.40;35.28;98757.36;104353;1280;74930;-76
2022/06/19 09:36:43;;;;;;;2.50;1.40;;;;;;;31.44;35.90;98752.75;104540;1280;61287;-76
2022/06/19 09:39:25;;;;;;;4.20;1.60;;;;;;;31.55;35.84;98752.42;104512;1278;61282;-76
2022/06/19 09:42:01;;;;;;;6.30;1.50;;;;;;;31.57;34.99;98751.41;104776;1278;73492;-76
2022/06/19 09:44:36;;;;;;;2.60;1.40;;;;;;;31.58;35.07;98742.45;104568;1277;69274;-75
2022/06/19 09:47:09;;;;;;;2.80;1.50;;;;;;;31.59;34.99;98739.21;104813;1271;73303;-75
2022/06/19 09:49:39;;;;;;;3.10;1.80;;;;;;;31.59;35.11;98732.81;105211;1271;61267;-75
2022/06/19 09:52:13;;;;;;;5.90;1.70;;;;;;;31.58;34.19;98732.31;105226;1271;62091;-76
2022/06/19 09:55:26;;;;;;;3.40;1.60;;;;;;;31.52;34.26;98731.95;105225;1271;76411;-76
2022/06/19 09:58:14;;;;;;;4.60;1.50;;;;;;;31.42;34.06;98732.79;104272;1283;69170;-75
2022/06/19 10:00:45;;;;;;;4.10;1.60;;;;;;;31.42;34.19;98728.90;104319;1283;73184;-76
2022/06/19 10:03:31;;;;;;;3.20;1.70;;;;;;;31.38;33.86;98726.52;104291;1283;61385;-76
2022/06/19 10:06:20;;;;;;;3.50;1.30;;;;;;;31.33;33.46;98722.91;104290;1283;61362;-77
2022/06/19 10:08:57;;;;;;;3.00;1.40;;;;;;;31.34;33.66;98724.96;104265;1283;75352;-76
2022/06/19 10:11:32;;;;;;;2.30;1.80;;;;;;;31.37;33.53;98720.98;104303;1283;69520;-77
2022/06/19 10:14:05;;;;;;;2.90;1.50;;;;;;;31.39;33.23;98718.88;104277;1283;73416;-77
2022/06/19 10:16:48;;;;;;;2.70;1.70;;;;;;;31.44;33.84;98718.88;104317;1283;61299;-76
2022/06/19 10:19:22;;;;;;;1.90;1.50;;;;;;;31.48;33.76;98714.81;104309;1283;61377;-76
2022/06/19 10:25:03;;;;;;;3.30;1.60;;;;;;;31.44;33.79;98709.91;104314;1283;70277;-77
2022/06/19 10:27:49;;;;;;;3.30;1.40;;;;;;;31.51;34.22;98704.13;104292;1282;72879;-75
2022/06/19 10:30:26;;;;;;;5.10;1.90;;;;;;;31.55;34.34;98697.98;104368;1283;61582;-75
2022/06/19 10:33:17;;;;;;;3.00;1.60;;;;;;;31.62;34.70;98696.40;104268;1283;61636;-76
2022/06/19 10:35:57;;;;;;;7.50;1.90;;;;;;;31.68;34.08;98694.82;104778;1271;75751;-76
2022/06/19 10:38:36;;;;;;;2.90;2.00;;;;;;;31.73;34.09;98692.14;104975;1271;69486;-76
2022/06/19 10:44:28;;;;;;;3.60;1.70;;;;;;;31.84;34.31;98681.27;104645;1277;61305;-75
2022/06/19 10:47:16;;;;;;;4.20;1.90;;;;;;;31.90;34.34;98677.45;104814;1277;61369;-76
2022/06/19 10:50:02;;;;;;;6.60;2.50;;;;;;;31.91;33.73;98678.81;104825;1277;76444;-76
2022/06/19 10:52:56;;;;;;;6.70;2.70;;;;;;;31.91;33.95;98677.88;104629;1278;69636;-76
2022/06/19 10:55:42;;;;;;;3.80;2.00;;;;;;;31.95;33.98;98666.16;104457;1278;73858;-75
2022/06/19 10:58:15;;;;;;;7.80;2.20;;;;;;;31.96;33.62;98661.05;104871;1277;61344;-76
2022/06/19 11:00:42;;;;;;;3.60;1.90;;;;;;;31.93;33.77;98658.23;104714;1278;62058;-76
2022/06/19 11:06:35;;;;;;;7.40;2.50;;;;;;;31.98;34.11;98653.69;104830;1277;68751;-77
2022/06/19 11:09:07;;;;;;;4.20;2.50;;;;;;;31.99;33.56;98653.05;104844;1277;73630;-76
2022/06/19 11:11:38;;;;;;;7.00;2.70;;;;;;;31.95;34.03;98652.11;104847;1277;61307;-76
2022/06/19 11:14:26;;;;;;;6.00;1.80;;;;;;;32.05;34.64;98653.86;104950;1277;61735;-75
2022/06/19 11:17:39;;;;;;;3.70;1.90;;;;;;;32.09;34.07;98651.63;105090;1277;75175;-76
2022/06/19 11:20:20;;;;;;;6.20;1.90;;;;;;;32.11;34.00;98649.06;104426;1277;70181;-75
2022/06/19 11:22:51;;;;;;;5.70;2.00;;;;;;;32.04;33.58;98646.80;105201;1277;74712;-75
2022/06/19 11:25:21;;;;;;;2.90;1.90;;;;;;;32.08;34.31;98646.80;104843;1277;61281;-76
2022/06/19 11:27:50;;;;;;;;;;;;;;;32.10;33.75;98642.59;104861;1277;62039;-75
2022/06/19 11:30:25;;;;;;;;;;;;;;;32.09;34.17;98641.20;104878;1277;75407;-76
2022/06/19 11:32:52;;;;;;;5.80;1.90;;;;;;;32.12;34.08;98642.83;104839;1277;70265;-76
2022/06/19 11:35:18;;;;;;;4.20;1.80;;;;;;;32.16;34.45;98643.23;104843;1277;74351;-77
2022/06/19 11:37:54;;;;;;;5.40;2.00;;;;;;;32.30;34.80;98639.36;104620;1277;61833;-77
2022/06/19 11:40:37;;;;;;;3.20;2.10;;;;;;;32.40;34.38;98636.04;104865;1277;61253;-75
2022/06/19 11:43:05;;;;;;;2.70;1.50;;;;;;;32.42;34.26;98638.88;104662;1278;75396;-77
2022/06/19 11:45:35;;;;;;;3.20;1.70;;;;;;;32.40;33.59;98625.12;104604;1277;69274;-76
2022/06/19 11:48:24;;;;;;;7.80;2.60;;;;;;;32.42;33.82;98616.70;104807;1277;74390;-76
2022/06/19 11:50:53;;;;;;;3.00;1.50;;;;;;;32.47;33.74;98620.11;104826;1277;61834;-76
2022/06/19 11:53:24;;;;;;;5.10;1.90;;;;;;;32.49;33.94;98620.48;104856;1277;61860;-76
2022/06/19 11:56:11;;;;;;;4.60;1.90;;;;;;;32.51;33.24;98609.52;104853;1277;76118;-77